createdAt,value
2018-09-03T00:00:48.619Z,0.00
2018-09-03T00:01:48.607Z,0.00
2018-09-03T00:02:48.591Z,0.00
2018-09-03T00:03:48.577Z,0.00
2018-09-03T00:04:48.566Z,0.00
2018-09-03T00:05:48.555Z,0.00
2018-09-03T00:06:48.537Z,0.00
2018-09-03T00:07:48.525Z,0.00
2018-09-03T00:08:48.512Z,0.00
2018-09-03T00:09:48.497Z,0.00
2018-09-03T00:10:48.483Z,0.00
2018-09-03T00:11:48.472Z,0.00
2018-09-03T00:12:48.458Z,0.00
2018-09-03T00:13:48.446Z,0.00
2018-09-03T00:14:48.429Z,0.00
2018-09-03T00:15:48.421Z,0.00
2018-09-03T00:16:48.403Z,0.00
2018-09-03T00:17:48.398Z,0.00
2018-09-03T00:18:48.376Z,0.00
2018-09-03T00:19:48.362Z,0.00
2018-09-03T00:20:48.348Z,0.00
2018-09-03T00:21:48.334Z,0.00
2018-09-03T00:22:48.325Z,0.00
2018-09-03T00:23:48.307Z,0.00
2018-09-03T00:24:48.293Z,0.00
2018-09-03T00:25:48.284Z,0.00
2018-09-03T00:26:48.267Z,0.00
2018-09-03T00:27:48.253Z,0.00
2018-09-03T00:28:48.242Z,0.00
2018-09-03T00:29:48.227Z,0.00
2018-09-03T00:30:48.213Z,0.00
2018-09-03T00:31:48.204Z,0.00
2018-09-03T00:32:48.185Z,0.00
2018-09-03T00:33:48.173Z,0.00
2018-09-03T00:34:48.160Z,0.00
2018-09-03T00:35:48.145Z,0.00
2018-09-03T00:36:48.134Z,0.00
2018-09-03T00:37:48.123Z,0.00
2018-09-03T00:38:48.108Z,0.00
2018-09-03T00:39:48.090Z,0.00
2018-09-03T00:40:48.076Z,0.00
2018-09-03T00:41:48.065Z,0.00
2018-09-03T00:42:48.050Z,0.00
2018-09-03T00:43:48.040Z,0.00
2018-09-03T00:44:48.024Z,0.00
2018-09-03T00:45:48.010Z,0.00
2018-09-03T00:46:48.003Z,0.00
2018-09-03T00:47:47.986Z,0.00
2018-09-03T00:48:47.976Z,0.00
2018-09-03T00:49:47.956Z,0.00
2018-09-03T00:50:47.942Z,0.00
2018-09-03T00:51:47.929Z,0.00
2018-09-03T00:52:47.914Z,0.00
2018-09-03T00:53:47.900Z,0.00
2018-09-03T00:54:47.887Z,0.00
2018-09-03T00:55:47.926Z,0.00
2018-09-03T00:56:47.864Z,0.00
2018-09-03T00:57:47.847Z,0.00
2018-09-03T00:58:47.835Z,0.00
2018-09-03T00:59:47.819Z,0.00
2018-09-03T01:00:47.807Z,0.00
2018-09-03T01:01:47.792Z,0.00
2018-09-03T01:02:47.779Z,0.00
2018-09-03T01:03:47.765Z,0.00
2018-09-03T01:04:47.751Z,0.00
2018-09-03T01:05:47.737Z,0.00
2018-09-03T01:06:47.725Z,0.00
2018-09-03T01:07:47.711Z,0.00
2018-09-03T01:08:47.706Z,0.00
2018-09-03T01:09:47.682Z,0.00
2018-09-03T01:10:47.670Z,0.00
2018-09-03T01:11:47.655Z,0.00
2018-09-03T01:12:47.641Z,0.00
2018-09-03T01:13:47.629Z,0.00
2018-09-03T01:14:47.614Z,0.00
2018-09-03T01:15:47.606Z,0.00
2018-09-03T01:16:47.596Z,0.00
2018-09-03T01:17:47.571Z,0.00
2018-09-03T01:18:47.558Z,0.00
2018-09-03T01:19:47.547Z,0.00
2018-09-03T01:20:47.531Z,0.00
2018-09-03T01:21:47.518Z,0.00
2018-09-03T01:22:47.503Z,0.00
2018-09-03T01:23:47.493Z,0.00
2018-09-03T01:24:47.477Z,0.00
2018-09-03T01:25:47.462Z,0.00
2018-09-03T01:26:47.449Z,0.00
2018-09-03T01:27:47.435Z,0.00
2018-09-03T01:28:47.423Z,0.00
2018-09-03T01:29:47.409Z,0.00
2018-09-03T01:30:47.394Z,0.00
2018-09-03T01:31:47.382Z,0.00
2018-09-03T01:32:47.366Z,0.00
2018-09-03T01:33:47.354Z,0.00
2018-09-03T01:34:47.339Z,0.00
2018-09-03T01:35:47.324Z,0.00
2018-09-03T01:36:47.312Z,0.00
2018-09-03T01:37:47.301Z,0.00
2018-09-03T01:38:47.287Z,0.00
2018-09-03T01:39:47.272Z,0.00
2018-09-03T01:40:47.258Z,0.00
2018-09-03T01:41:47.242Z,0.00
2018-09-03T01:42:47.230Z,0.00
2018-09-03T01:43:47.215Z,0.00
2018-09-03T01:44:47.203Z,0.00
2018-09-03T01:45:47.190Z,0.00
2018-09-03T01:46:47.176Z,0.00
2018-09-03T01:47:47.162Z,0.00
2018-09-03T01:48:47.146Z,0.00
2018-09-03T01:49:47.133Z,0.00
2018-09-03T01:50:47.120Z,0.00
2018-09-03T01:51:47.104Z,0.00
2018-09-03T01:52:47.092Z,0.00
2018-09-03T01:53:47.078Z,0.00
2018-09-03T01:54:47.065Z,0.00
2018-09-03T01:55:47.050Z,0.00
2018-09-03T01:56:47.040Z,0.00
2018-09-03T01:57:47.022Z,0.00
2018-09-03T01:58:47.008Z,0.00
2018-09-03T01:59:46.996Z,0.00
2018-09-03T02:00:46.982Z,0.00
2018-09-03T02:01:46.967Z,0.00
2018-09-03T02:02:46.956Z,0.00
2018-09-03T02:03:46.940Z,0.00
2018-09-03T02:04:46.925Z,0.00
2018-09-03T02:05:46.912Z,0.00
2018-09-03T02:06:46.900Z,0.00
2018-09-03T02:07:46.883Z,0.00
2018-09-03T02:08:46.871Z,0.00
2018-09-03T02:09:46.856Z,0.00
2018-09-03T02:10:46.849Z,0.00
2018-09-03T02:11:46.829Z,0.00
2018-09-03T02:12:46.819Z,0.00
2018-09-03T02:13:46.802Z,0.00
2018-09-03T02:14:46.789Z,0.00
2018-09-03T02:15:46.773Z,0.00
2018-09-03T02:16:46.761Z,0.00
2018-09-03T02:17:46.748Z,0.00
2018-09-03T02:18:46.736Z,0.00
2018-09-03T02:19:46.723Z,0.00
2018-09-03T02:20:46.707Z,0.00
2018-09-03T02:21:46.692Z,0.00
2018-09-03T02:22:46.680Z,0.00
2018-09-03T02:23:46.667Z,0.00
2018-09-03T02:24:46.650Z,0.00
2018-09-03T02:25:46.637Z,0.00
2018-09-03T02:26:46.623Z,0.00
2018-09-03T02:27:46.612Z,0.00
2018-09-03T02:28:46.595Z,0.00
2018-09-03T02:29:46.581Z,0.00
2018-09-03T02:30:46.571Z,0.00
2018-09-03T02:31:46.553Z,0.00
2018-09-03T02:32:46.540Z,0.00
2018-09-03T02:33:46.529Z,0.00
2018-09-03T02:34:46.516Z,0.00
2018-09-03T02:35:46.500Z,0.00
2018-09-03T02:36:46.489Z,0.00
2018-09-03T02:37:46.475Z,0.00
2018-09-03T02:38:46.461Z,0.00
2018-09-03T02:39:46.444Z,0.00
2018-09-03T02:40:46.434Z,0.00
2018-09-03T02:41:46.415Z,0.00
2018-09-03T02:42:46.407Z,0.00
2018-09-03T02:43:46.387Z,0.00
2018-09-03T02:44:46.378Z,0.00
2018-09-03T02:45:46.362Z,0.00
2018-09-03T02:46:46.348Z,0.00
2018-09-03T02:47:46.337Z,0.00
2018-09-03T02:48:46.322Z,0.00
2018-09-03T02:49:46.314Z,0.00
2018-09-03T02:50:46.292Z,0.00
2018-09-03T02:51:46.289Z,0.00
2018-09-03T02:52:46.271Z,0.00
2018-09-03T02:53:46.255Z,0.00
2018-09-03T02:54:46.238Z,0.00
2018-09-03T02:55:46.228Z,0.00
2018-09-03T02:56:46.210Z,0.00
2018-09-03T02:57:46.196Z,0.00
2018-09-03T02:58:46.182Z,0.00
2018-09-03T02:59:46.168Z,0.00
2018-09-03T03:00:46.155Z,0.00
2018-09-03T03:01:46.149Z,0.00
2018-09-03T03:02:46.128Z,0.00
2018-09-03T03:03:46.112Z,0.00
2018-09-03T03:04:46.100Z,0.00
2018-09-03T03:05:46.088Z,0.00
2018-09-03T03:06:46.071Z,0.00
2018-09-03T03:07:46.058Z,0.00
2018-09-03T03:08:46.044Z,0.00
2018-09-03T03:09:46.029Z,0.00
2018-09-03T03:10:46.016Z,0.00
2018-09-03T03:11:46.057Z,0.00
2018-09-03T03:12:45.987Z,0.00
2018-09-03T03:13:45.974Z,0.00
2018-09-03T03:14:45.960Z,0.00
2018-09-03T03:15:45.946Z,0.00
2018-09-03T03:16:45.933Z,0.00
2018-09-03T03:17:45.932Z,0.00
2018-09-03T03:18:45.907Z,0.00
2018-09-03T03:19:45.889Z,0.00
2018-09-03T03:20:45.875Z,0.00
2018-09-03T03:21:45.862Z,0.00
2018-09-03T03:22:45.857Z,0.00
2018-09-03T03:23:45.837Z,0.00
2018-09-03T03:24:45.821Z,0.00
2018-09-03T03:25:45.811Z,0.00
2018-09-03T03:26:45.793Z,0.00
2018-09-03T03:27:45.777Z,0.00
2018-09-03T03:28:45.767Z,0.00
2018-09-03T03:29:45.749Z,0.00
2018-09-03T03:30:45.737Z,0.00
2018-09-03T03:31:45.721Z,0.00
2018-09-03T03:32:45.707Z,0.00
2018-09-03T03:33:45.693Z,0.00
2018-09-03T03:34:45.679Z,0.00
2018-09-03T03:35:45.665Z,0.00
2018-09-03T03:36:45.657Z,0.00
2018-09-03T03:37:45.639Z,0.00
2018-09-03T03:38:45.629Z,0.00
2018-09-03T03:39:45.610Z,0.00
2018-09-03T03:40:45.595Z,0.00
2018-09-03T03:41:45.581Z,0.00
2018-09-03T03:42:45.566Z,0.00
2018-09-03T03:43:45.553Z,0.00
2018-09-03T03:44:45.539Z,0.00
2018-09-03T03:45:45.525Z,0.00
2018-09-03T03:46:45.511Z,0.00
2018-09-03T03:47:45.501Z,0.00
2018-09-03T03:48:45.544Z,0.00
2018-09-03T03:49:45.469Z,0.00
2018-09-03T03:50:45.454Z,0.00
2018-09-03T03:51:45.442Z,0.00
2018-09-03T03:52:45.426Z,0.00
2018-09-03T03:53:45.413Z,0.00
2018-09-03T03:54:45.398Z,0.00
2018-09-03T03:55:45.382Z,0.00
2018-09-03T03:56:45.369Z,0.00
2018-09-03T03:57:45.356Z,0.00
2018-09-03T03:58:45.341Z,0.00
2018-09-03T03:59:45.328Z,0.00
2018-09-03T04:00:45.313Z,0.00
2018-09-03T04:01:45.299Z,0.00
2018-09-03T04:02:45.285Z,0.00
2018-09-03T04:03:45.277Z,0.00
2018-09-03T04:04:45.255Z,0.00
2018-09-03T04:05:45.242Z,0.00
2018-09-03T04:06:45.228Z,0.00
2018-09-03T04:07:45.213Z,0.00
2018-09-03T04:08:45.199Z,0.00
2018-09-03T04:09:45.185Z,0.00
2018-09-03T04:10:45.169Z,0.00
2018-09-03T04:11:45.157Z,5.63
2018-09-03T04:12:45.141Z,5.63
2018-09-03T04:13:45.124Z,5.63
2018-09-03T04:14:45.117Z,5.63
2018-09-03T04:15:45.103Z,11.25
2018-09-03T04:16:45.084Z,11.25
2018-09-03T04:17:45.075Z,11.25
2018-09-03T04:18:45.056Z,11.25
2018-09-03T04:19:45.045Z,11.25
2018-09-03T04:20:45.027Z,11.25
2018-09-03T04:21:45.017Z,16.88
2018-09-03T04:22:45.000Z,16.88
2018-09-03T04:23:44.984Z,16.88
2018-09-03T04:24:44.970Z,16.88
2018-09-03T04:25:44.959Z,16.88
2018-09-03T04:26:44.942Z,16.88
2018-09-03T04:27:44.926Z,22.50
2018-09-03T04:28:44.919Z,22.50
2018-09-03T04:29:44.898Z,22.50
2018-09-03T04:30:44.890Z,22.50
2018-09-03T04:31:44.869Z,22.50
2018-09-03T04:32:44.854Z,28.13
2018-09-03T04:33:44.846Z,28.13
2018-09-03T04:34:44.828Z,28.13
2018-09-03T04:35:44.811Z,33.75
2018-09-03T04:36:44.800Z,33.75
2018-09-03T04:37:44.782Z,33.75
2018-09-03T04:38:44.842Z,39.38
2018-09-03T04:39:44.756Z,39.38
2018-09-03T04:40:44.740Z,39.38
2018-09-03T04:41:44.724Z,39.38
2018-09-03T04:42:44.711Z,45.00
2018-09-03T04:43:44.702Z,45.00
2018-09-03T04:44:44.680Z,45.00
2018-09-03T04:45:44.668Z,50.63
2018-09-03T04:46:44.650Z,50.63
2018-09-03T04:47:44.637Z,50.63
2018-09-03T04:48:44.623Z,50.63
2018-09-03T04:49:44.613Z,56.25
2018-09-03T04:50:44.599Z,56.25
2018-09-03T04:51:44.578Z,56.25
2018-09-03T04:52:44.569Z,61.88
2018-09-03T07:14:26.753Z,1608.75
2018-09-03T07:15:26.742Z,1698.75
2018-09-03T07:16:26.732Z,1721.25
2018-09-03T07:17:26.720Z,1726.88
2018-09-03T07:18:26.710Z,1783.13
2018-09-03T07:19:26.699Z,1006.88
2018-09-03T07:20:26.689Z,495.00
2018-09-03T07:21:26.678Z,483.75
2018-09-03T07:22:26.669Z,562.50
2018-09-03T07:23:26.656Z,838.13
2018-09-03T07:24:26.648Z,1490.63
2018-09-03T07:25:26.639Z,2002.50
2018-09-03T07:26:26.627Z,1968.75
2018-09-03T07:27:26.616Z,1873.13
2018-09-03T07:28:26.608Z,1625.63
2018-09-03T07:29:26.601Z,995.63
2018-09-03T07:30:26.587Z,888.75
2018-09-03T07:31:26.580Z,759.38
2018-09-03T07:32:26.570Z,798.75
2018-09-03T07:33:26.563Z,658.13
2018-09-03T07:34:26.549Z,613.13
2018-09-03T07:35:26.557Z,596.25
2018-09-03T07:36:26.532Z,601.88
2018-09-03T07:37:26.522Z,601.88
2018-09-03T07:38:26.517Z,646.88
2018-09-03T07:39:26.503Z,680.63
2018-09-03T07:40:26.500Z,736.88
2018-09-03T07:41:26.487Z,826.88
2018-09-03T07:42:26.484Z,1023.75
2018-09-03T07:43:26.470Z,1237.50
2018-09-03T07:44:26.458Z,945.00
2018-09-03T07:45:26.448Z,765.00
2018-09-03T07:46:26.443Z,686.25
2018-09-03T07:47:26.435Z,658.13
2018-09-03T07:48:26.424Z,618.75
2018-09-03T07:49:26.418Z,596.25
2018-09-03T07:50:26.410Z,596.25
2018-09-03T07:51:26.394Z,601.88
2018-09-03T07:52:26.386Z,646.88
2018-09-03T07:53:26.375Z,714.38
2018-09-03T07:54:26.373Z,781.88
2018-09-03T07:55:26.359Z,877.50
2018-09-03T07:56:26.350Z,1175.63
2018-09-03T07:57:26.526Z,1012.50
2018-09-03T07:58:26.332Z,1035.00
2018-09-03T07:59:26.322Z,1215.00
2018-09-03T08:00:26.315Z,1147.50
2018-09-03T08:01:26.308Z,1417.50
2018-09-03T08:02:26.295Z,1653.75
2018-09-03T08:03:26.290Z,1186.88
2018-09-03T08:04:26.277Z,2244.38
2018-09-03T08:05:26.268Z,2874.38
2018-09-03T08:06:26.262Z,2525.63
2018-09-03T08:07:26.312Z,2891.25
2018-09-03T08:08:26.250Z,2857.50
2018-09-03T08:09:26.236Z,2835.00
2018-09-03T08:10:26.226Z,2823.75
2018-09-03T08:11:26.220Z,2795.63
2018-09-03T08:12:26.212Z,2801.25
2018-09-03T08:13:26.204Z,2750.63
2018-09-03T08:14:26.196Z,2700.00
2018-09-03T08:15:26.189Z,2683.13
2018-09-03T08:16:26.182Z,2700.00
2018-09-03T08:17:26.176Z,2683.13
2018-09-03T08:18:26.167Z,2716.88
2018-09-03T08:19:26.161Z,2750.63
2018-09-03T08:20:26.155Z,2829.38
2018-09-03T08:21:26.148Z,2823.75
2018-09-03T08:22:26.144Z,2806.88
2018-09-03T08:23:26.136Z,2784.38
2018-09-03T08:24:26.137Z,2823.75
2018-09-03T08:25:26.125Z,2891.25
2018-09-03T08:26:26.117Z,2925.00
2018-09-03T08:27:26.113Z,2941.88
2018-09-03T08:28:26.109Z,3003.75
2018-09-03T08:29:26.099Z,3127.50
2018-09-03T08:30:26.096Z,3172.50
2018-09-03T08:31:26.091Z,3144.38
2018-09-03T08:32:26.087Z,3071.25
2018-09-03T08:33:26.079Z,2975.63
2018-09-03T08:34:26.072Z,2823.75
2018-09-03T08:35:26.107Z,2806.88
2018-09-03T08:36:26.063Z,2868.75
2018-09-03T08:37:26.059Z,2930.63
2018-09-03T08:38:26.052Z,3110.63
2018-09-03T08:39:26.047Z,3161.25
2018-09-03T08:40:26.044Z,3223.13
2018-09-03T08:41:26.039Z,3138.75
2018-09-03T08:42:26.032Z,3217.50
2018-09-03T08:43:26.027Z,3273.75
2018-09-03T08:44:26.024Z,3251.25
2018-09-03T08:45:26.040Z,3240.00
2018-09-03T08:46:26.015Z,3195.00
2018-09-03T08:47:26.014Z,2981.25
2018-09-03T08:48:26.006Z,2874.38
2018-09-03T08:49:26.003Z,2936.25
2018-09-03T08:50:26.025Z,2908.13
2018-09-03T08:51:25.992Z,2998.13
2018-09-03T08:52:25.989Z,2936.25
2018-09-03T08:53:25.993Z,2986.88
2018-09-03T08:54:25.979Z,2970.00
2018-09-03T08:55:25.976Z,2998.13
2018-09-03T08:56:25.976Z,3121.88
2018-09-03T08:57:25.968Z,2936.25
2018-09-03T08:58:25.961Z,3279.38
2018-09-03T08:59:25.959Z,3425.63
2018-09-03T09:00:25.956Z,3515.63
2018-09-03T09:01:25.956Z,3465.00
2018-09-03T09:02:25.947Z,3391.88
2018-09-03T09:03:25.947Z,3144.38
2018-09-03T09:04:25.942Z,3037.50
2018-09-03T09:05:25.936Z,2441.25
2018-09-03T09:06:25.931Z,1710.00
2018-09-03T09:07:25.932Z,1333.13
2018-09-03T09:08:25.925Z,1130.63
2018-09-03T09:09:25.921Z,1203.75
2018-09-03T09:10:25.916Z,1181.25
2018-09-03T09:11:25.914Z,1175.63
2018-09-03T09:12:25.917Z,1153.13
2018-09-03T09:13:25.956Z,1125.00
2018-09-03T09:14:25.900Z,1102.50
2018-09-03T09:15:25.898Z,1423.13
2018-09-03T09:16:25.895Z,2497.50
2018-09-03T09:17:25.943Z,3121.88
2018-09-03T09:18:25.888Z,3251.25
2018-09-03T09:19:25.884Z,3403.13
2018-09-03T09:20:25.877Z,3493.13
2018-09-03T09:21:25.880Z,3549.38
2018-09-03T09:22:25.869Z,3526.88
2018-09-03T09:23:25.868Z,3487.50
2018-09-03T09:24:25.935Z,2418.75
2018-09-03T09:25:25.860Z,1288.13
2018-09-03T09:26:25.857Z,2469.38
2018-09-03T09:27:25.852Z,3577.50
2018-09-03T09:28:25.847Z,2992.50
2018-09-03T09:29:25.847Z,1603.13
2018-09-03T09:30:25.845Z,1063.13
2018-09-03T09:31:25.840Z,1057.50
2018-09-03T09:32:25.833Z,1068.75
2018-09-03T09:33:25.829Z,1068.75
2018-09-03T09:34:25.826Z,1080.00
2018-09-03T09:35:25.831Z,1080.00
2018-09-03T09:36:25.818Z,1085.63
2018-09-03T09:37:25.813Z,1096.88
2018-09-03T09:38:25.809Z,1108.13
2018-09-03T09:39:25.806Z,1406.25
2018-09-03T09:40:25.804Z,2626.88
2018-09-03T09:41:25.803Z,3729.38
2018-09-03T09:42:25.796Z,3808.13
2018-09-03T09:43:25.791Z,3740.63
2018-09-03T09:44:25.787Z,3729.38
2018-09-03T09:45:25.784Z,3825.00
2018-09-03T09:46:25.780Z,3729.38
2018-09-03T09:47:25.777Z,2970.00
2018-09-03T09:48:25.774Z,1996.88
2018-09-03T09:49:25.771Z,1333.13
2018-09-03T09:50:25.771Z,1293.75
2018-09-03T09:51:25.767Z,1305.00
2018-09-03T09:52:25.764Z,1316.25
2018-09-03T09:53:25.768Z,1333.13
2018-09-03T09:54:25.757Z,1546.88
2018-09-03T09:55:25.754Z,2908.13
2018-09-03T09:56:25.803Z,4123.13
2018-09-03T09:57:25.745Z,4207.50
2018-09-03T09:58:25.749Z,4196.25
2018-09-03T09:59:25.738Z,4235.63
2018-09-03T10:00:25.737Z,4387.50
2018-09-03T10:01:25.739Z,4432.50
2018-09-03T10:02:25.732Z,4359.38
2018-09-03T10:03:25.732Z,4241.25
2018-09-03T10:04:25.775Z,4291.88
2018-09-03T10:05:25.725Z,4466.25
2018-09-03T10:06:25.722Z,4618.13
2018-09-03T10:07:25.720Z,4533.75
2018-09-03T10:08:25.718Z,4387.50
2018-09-03T10:09:25.718Z,4280.63
2018-09-03T10:10:25.722Z,4235.63
2018-09-03T10:11:25.710Z,4280.63
2018-09-03T10:12:25.710Z,4359.38
2018-09-03T10:13:25.707Z,4359.38
2018-09-03T10:14:25.707Z,4415.63
2018-09-03T10:15:25.713Z,4483.13
2018-09-03T10:16:25.702Z,4516.88
2018-09-03T10:17:25.700Z,4584.38
2018-09-03T10:18:25.700Z,4455.00
2018-09-03T10:19:25.697Z,4258.13
2018-09-03T10:20:25.697Z,4100.63
2018-09-03T10:21:25.701Z,3976.88
2018-09-03T10:22:25.692Z,4224.38
2018-09-03T10:23:25.694Z,4415.63
2018-09-03T10:24:25.691Z,4595.63
2018-09-03T10:25:25.691Z,4668.75
2018-09-03T10:26:25.688Z,4629.38
2018-09-03T10:27:25.688Z,4629.38
2018-09-03T10:28:25.686Z,4556.25
2018-09-03T10:29:28.509Z,4359.38
2018-09-03T10:30:25.688Z,4201.88
2018-09-03T10:31:25.686Z,4111.88
2018-09-03T10:32:25.683Z,4331.25
2018-09-03T10:33:25.685Z,4556.25
2018-09-03T10:34:25.681Z,4657.50
2018-09-03T10:35:25.680Z,4668.75
2018-09-03T10:36:25.682Z,4719.38
2018-09-03T10:37:25.682Z,4550.63
2018-09-03T10:38:25.678Z,4820.63
2018-09-03T10:39:25.683Z,4820.63
2018-09-03T10:40:25.680Z,4781.25
2018-09-03T10:41:25.683Z,4792.50
2018-09-03T10:42:25.678Z,4696.88
2018-09-03T10:43:25.682Z,4635.00
2018-09-03T10:44:25.685Z,4809.38
2018-09-03T10:45:25.679Z,4770.00
2018-09-03T10:46:25.689Z,4618.13
2018-09-03T10:47:25.698Z,4657.50
2018-09-03T10:48:25.677Z,4578.75
2018-09-03T10:49:25.680Z,4691.25
2018-09-03T10:50:25.679Z,4567.50
2018-09-03T10:51:25.681Z,4190.63
2018-09-03T10:52:25.679Z,4213.13
2018-09-03T10:53:25.714Z,4201.88
2018-09-03T10:54:25.680Z,4421.25
2018-09-03T10:55:25.684Z,4702.50
2018-09-03T10:56:25.683Z,4910.63
2018-09-03T10:57:25.682Z,4854.38
2018-09-03T10:58:25.689Z,4809.38
2018-09-03T10:59:25.699Z,3217.50
2018-09-03T11:00:25.686Z,1220.63
2018-09-03T11:01:25.684Z,4871.25
2018-09-03T11:02:25.689Z,4775.63
2018-09-03T11:03:25.686Z,4837.50
2018-09-03T11:04:25.689Z,4758.75
2018-09-03T11:05:25.696Z,4786.88
2018-09-03T11:06:25.693Z,4730.63
2018-09-03T11:07:25.693Z,4696.88
2018-09-03T11:08:25.689Z,4663.13
2018-09-03T11:09:25.698Z,4741.88
2018-09-03T11:10:25.694Z,4882.50
2018-09-03T11:11:25.692Z,4950.00
2018-09-03T11:12:25.710Z,5130.00
2018-09-03T11:13:25.703Z,4100.63
2018-09-03T11:14:25.697Z,4494.38
2018-09-03T11:15:25.703Z,5068.13
2018-09-03T11:16:25.702Z,5028.75
2018-09-03T11:17:25.702Z,4876.88
2018-09-03T11:18:25.702Z,4871.25
2018-09-03T11:19:25.712Z,4747.50
2018-09-03T11:20:25.706Z,4500.00
2018-09-03T11:21:25.930Z,4578.75
2018-09-03T11:22:25.832Z,4381.88
2018-09-03T11:23:25.709Z,4522.50
2018-09-03T11:24:25.710Z,4747.50
2018-09-03T11:25:25.711Z,4865.63
2018-09-03T11:26:25.713Z,4770.00
2018-09-03T11:27:25.716Z,2154.38
2018-09-03T11:28:25.716Z,4516.88
2018-09-03T11:29:25.742Z,4837.50
2018-09-03T11:30:25.718Z,4950.00
2018-09-03T11:31:25.722Z,4888.13
2018-09-03T11:32:25.725Z,928.13
2018-09-03T11:33:25.726Z,905.63
2018-09-03T11:34:25.725Z,2390.63
2018-09-03T11:35:25.726Z,4871.25
2018-09-03T11:36:25.731Z,4730.63
2018-09-03T11:37:25.732Z,855.00
2018-09-03T11:38:25.735Z,4792.50
2018-09-03T11:39:25.737Z,4696.88
2018-09-03T11:40:25.735Z,4685.63
2018-09-03T11:41:25.738Z,4702.50
2018-09-03T11:42:25.757Z,4685.63
2018-09-03T11:43:25.742Z,4539.38
2018-09-03T11:44:25.741Z,4747.50
2018-09-03T11:45:25.742Z,849.38
2018-09-03T11:46:25.746Z,4477.50
2018-09-03T11:47:25.745Z,4443.75
2018-09-03T11:48:25.748Z,4325.63
2018-09-03T11:49:25.749Z,4477.50
2018-09-03T11:50:25.749Z,4601.25
2018-09-03T11:51:25.755Z,4376.25
2018-09-03T11:52:25.753Z,4207.50
2018-09-03T11:53:25.755Z,4336.88
2018-09-03T11:54:25.794Z,4280.63
2018-09-03T11:55:25.758Z,1434.38
2018-09-03T11:56:25.759Z,4286.25
2018-09-03T11:57:25.762Z,826.88
2018-09-03T11:58:25.762Z,725.63
2018-09-03T11:59:25.762Z,843.75
2018-09-03T12:00:25.822Z,950.63
2018-09-03T12:01:25.765Z,4522.50
2018-09-03T12:02:25.765Z,4539.38
2018-09-03T12:03:25.766Z,4365.00
2018-09-03T12:04:25.776Z,4275.00
2018-09-03T12:05:25.768Z,4528.13
2018-09-03T12:06:25.766Z,4528.13
2018-09-03T12:07:25.771Z,4663.13
2018-09-03T12:08:25.771Z,4578.75
2018-09-03T12:09:25.780Z,4471.88
2018-09-03T12:10:25.771Z,4331.25
2018-09-03T12:11:25.772Z,4494.38
2018-09-03T12:12:25.778Z,1518.75
2018-09-03T12:13:25.778Z,1023.75
2018-09-03T12:14:25.784Z,4280.63
2018-09-03T12:15:25.781Z,4398.75
2018-09-03T12:16:25.784Z,1276.88
2018-09-03T12:17:25.781Z,3751.88
2018-09-03T12:18:25.781Z,3650.63
2018-09-03T12:19:25.787Z,3819.38
2018-09-03T12:20:25.784Z,3931.88
2018-09-03T12:21:25.784Z,1710.00
2018-09-03T12:22:25.788Z,2165.63
2018-09-03T12:23:25.838Z,1175.63
2018-09-03T12:24:25.789Z,3875.63
2018-09-03T12:25:25.791Z,3594.38
2018-09-03T12:26:25.794Z,3701.25
2018-09-03T12:27:25.791Z,691.88
2018-09-03T12:28:25.794Z,3324.38
2018-09-03T12:29:25.793Z,3335.63
2018-09-03T12:30:25.800Z,3228.75
2018-09-03T12:31:25.865Z,2840.63
2018-09-03T12:32:25.794Z,3751.88
2018-09-03T12:33:25.799Z,3330.00
2018-09-03T12:34:25.796Z,3931.88
2018-09-03T12:35:25.801Z,3667.50
2018-09-03T12:36:25.798Z,2970.00
2018-09-03T12:37:25.808Z,3172.50
2018-09-03T12:38:25.802Z,3150.00
2018-09-03T12:39:25.801Z,2880.00
2018-09-03T12:40:25.801Z,2446.88
2018-09-03T12:41:25.800Z,2368.13
2018-09-03T12:42:25.799Z,2891.25
2018-09-03T12:43:25.808Z,1327.50
2018-09-03T12:44:25.845Z,1631.25
2018-09-03T12:45:25.801Z,2542.50
2018-09-03T12:46:25.883Z,1991.25
2018-09-03T12:47:25.797Z,990.00
2018-09-03T12:48:25.807Z,883.13
2018-09-03T12:49:25.800Z,759.38
2018-09-03T12:50:25.798Z,776.25
2018-09-03T12:51:25.795Z,736.88
2018-09-03T12:52:25.804Z,714.38
2018-09-03T12:53:25.795Z,703.13
2018-09-03T12:54:25.794Z,703.13
2018-09-03T12:55:25.793Z,697.50
2018-09-03T12:56:25.788Z,686.25
2018-09-03T12:57:25.793Z,691.88
2018-09-03T12:58:25.789Z,703.13
2018-09-03T12:59:25.785Z,708.75
2018-09-03T13:00:25.782Z,652.50
2018-09-03T13:01:25.786Z,646.88
2018-09-03T13:02:25.777Z,478.13
2018-09-03T13:03:25.783Z,478.13
2018-09-03T13:04:25.829Z,500.63
2018-09-03T13:05:25.780Z,585.00
2018-09-03T13:06:25.770Z,601.88
2018-09-03T13:07:25.767Z,590.63
2018-09-03T13:08:25.766Z,562.50
2018-09-03T13:09:25.775Z,551.25
2018-09-03T13:10:25.761Z,568.13
2018-09-03T13:11:25.760Z,562.50
2018-09-03T13:12:25.761Z,562.50
2018-09-03T13:13:25.755Z,551.25
2018-09-03T13:14:25.750Z,528.75
2018-09-03T13:15:25.747Z,517.50
2018-09-03T13:16:25.744Z,528.75
2018-09-03T13:17:25.744Z,568.13
2018-09-03T13:18:25.738Z,585.00
2018-09-03T13:19:25.735Z,534.38
2018-09-03T13:20:25.746Z,523.13
2018-09-03T13:21:25.728Z,517.50
2018-09-03T13:22:25.728Z,511.88
2018-09-03T13:23:25.721Z,500.63
2018-09-03T13:24:25.721Z,506.25
2018-09-03T13:25:25.725Z,517.50
2018-09-03T13:26:25.715Z,506.25
2018-09-03T13:27:25.712Z,495.00
2018-09-03T13:28:25.709Z,427.50
2018-09-03T13:29:25.708Z,511.88
2018-09-03T13:30:25.696Z,511.88
2018-09-03T13:31:25.693Z,478.13
2018-09-03T13:32:25.690Z,433.13
2018-09-03T13:33:25.686Z,393.75
2018-09-03T13:34:25.682Z,416.25
2018-09-03T13:35:25.681Z,472.50
2018-09-03T13:36:25.675Z,455.63
2018-09-03T13:37:25.671Z,371.25
2018-09-03T13:38:25.664Z,371.25
2018-09-03T13:39:25.664Z,433.13
2018-09-03T13:40:25.664Z,427.50
2018-09-03T13:41:25.654Z,450.00
2018-09-03T13:42:25.725Z,461.25
2018-09-03T13:43:25.648Z,461.25
2018-09-03T13:44:25.644Z,444.38
2018-09-03T13:45:25.635Z,365.63
2018-09-03T13:46:25.636Z,416.25
2018-09-03T13:47:25.627Z,461.25
2018-09-03T13:48:25.623Z,478.13
2018-09-03T13:49:25.644Z,483.75
2018-09-03T13:50:25.614Z,466.88
2018-09-03T13:51:25.610Z,478.13
2018-09-03T13:52:25.607Z,483.75
2018-09-03T13:53:25.600Z,489.38
2018-09-03T13:54:25.594Z,489.38
2018-09-03T13:55:25.591Z,478.13
2018-09-03T13:56:25.644Z,360.00
2018-09-03T13:57:25.582Z,360.00
2018-09-03T13:58:25.575Z,247.50
2018-09-03T13:59:25.600Z,219.38
2018-09-03T14:00:25.567Z,331.88
2018-09-03T14:01:25.570Z,196.88
2018-09-03T14:02:25.556Z,196.88
2018-09-03T14:03:25.553Z,202.50
2018-09-03T14:04:25.546Z,208.13
2018-09-03T14:05:25.545Z,326.25
2018-09-03T14:06:25.537Z,326.25
2018-09-03T14:07:25.535Z,320.63
2018-09-03T14:08:25.529Z,320.63
2018-09-03T14:09:25.602Z,320.63
2018-09-03T14:10:25.521Z,331.88
2018-09-03T14:11:25.515Z,326.25
2018-09-03T14:12:25.509Z,326.25
2018-09-03T14:13:25.511Z,303.75
2018-09-03T14:14:25.519Z,315.00
2018-09-03T14:15:25.492Z,315.00
2018-09-03T14:16:25.486Z,309.38
2018-09-03T14:17:25.481Z,309.38
2018-09-03T14:18:25.475Z,303.75
2018-09-03T14:19:25.470Z,298.13
2018-09-03T14:20:25.467Z,298.13
2018-09-03T14:21:25.462Z,303.75
2018-09-03T14:22:25.455Z,303.75
2018-09-03T14:23:25.455Z,298.13
2018-09-03T14:24:25.462Z,298.13
2018-09-03T14:25:25.438Z,298.13
2018-09-03T14:26:25.435Z,303.75
2018-09-03T14:27:25.427Z,292.50
2018-09-03T14:28:25.452Z,286.88
2018-09-03T14:29:25.418Z,281.25
2018-09-03T14:30:25.411Z,275.63
2018-09-03T14:31:25.411Z,281.25
2018-09-03T14:32:25.401Z,281.25
2018-09-03T14:33:25.398Z,286.88
2018-09-03T14:34:25.414Z,275.63
2018-09-03T14:35:25.388Z,275.63
2018-09-03T14:36:25.382Z,281.25
2018-09-03T14:37:25.374Z,275.63
2018-09-03T14:38:25.368Z,270.00
2018-09-03T14:39:25.385Z,258.75
2018-09-03T14:40:25.359Z,196.88
2018-09-03T14:41:25.353Z,258.75
2018-09-03T14:42:25.346Z,253.13
2018-09-03T14:43:25.341Z,258.75
2018-09-03T14:44:25.350Z,258.75
2018-09-03T14:45:25.423Z,258.75
2018-09-03T14:46:25.325Z,253.13
2018-09-03T14:47:25.321Z,258.75
2018-09-03T14:48:25.315Z,264.38
2018-09-03T14:49:25.340Z,258.75
2018-09-03T14:50:25.308Z,253.13
2018-09-03T14:51:25.298Z,241.88
2018-09-03T14:52:25.291Z,247.50
2018-09-03T14:53:25.286Z,241.88
2018-09-03T14:54:25.290Z,241.88
2018-09-03T14:55:25.282Z,247.50
2018-09-03T14:56:25.282Z,253.13
2018-09-03T14:57:25.265Z,253.13